sensor_id;sensor_type;location;lat;lon;timestamp;temperature;humidity
33095;DHT22;19459;53.044;8.910;2023-04-24T00:00:55;11.40;99.90
33095;DHT22;19459;53.044;8.910;2023-04-24T00:03:26;11.50;99.90
33095;DHT22;19459;53.044;8.910;2023-04-24T00:05:53;11.50;99.90
33095;DHT22;19459;53.044;8.910;2023-04-24T00:08:20;11.50;99.90
33095;DHT22;19459;53.044;8.910;2023-04-24T00:10:46;11.50;99.90
33095;DHT22;19459;53.044;8.910;2023-04-24T00:13:12;11.50;99.90
33095;DHT22;19459;53.044;8.910;2023-04-24T00:15:38;11.60;99.90
33095;DHT22;19459;53.044;8.910;2023-04-24T00:18:04;11.60;99.90
33095;DHT22;19459;53.044;8.910;2023-04-24T00:20:30;11.70;99.90
33095;DHT22;19459;53.044;8.910;2023-04-24T00:22:57;11.70;99.90
33095;DHT22;19459;53.044;8.910;2023-04-24T00:25:23;11.70;99.90
33095;DHT22;19459;53.044;8.910;2023-04-24T00:27:49;11.70;99.90
33095;DHT22;19459;53.044;8.910;2023-04-24T00:30:15;11.70;99.90
33095;DHT22;19459;53.044;8.910;2023-04-24T00:32:41;11.70;99.90
33095;DHT22;19459;53.044;8.910;2023-04-24T00:35:07;11.70;99.90
33095;DHT22;19459;53.044;8.910;2023-04-24T00:37:33;11.70;99.90
33095;DHT22;19459;53.044;8.910;2023-04-24T00:39:59;11.60;99.90
33095;DHT22;19459;53.044;8.910;2023-04-24T00:42:25;11.70;99.90
33095;DHT22;19459;53.044;8.910;2023-04-24T00:44:51;11.70;99.90
33095;DHT22;19459;53.044;8.910;2023-04-24T00:47:17;11.80;99.90
33095;DHT22;19459;53.044;8.910;2023-04-24T00:49:44;11.90;99.90
33095;DHT22;19459;53.044;8.910;2023-04-24T00:52:10;11.90;99.90
33095;DHT22;19459;53.044;8.910;2023-04-24T00:54:36;11.90;99.90
33095;DHT22;19459;53.044;8.910;2023-04-24T00:57:05;12.00;99.90
33095;DHT22;19459;53.044;8.910;2023-04-24T00:59:31;11.90;99.90
33095;DHT22;19459;53.044;8.910;2023-04-24T01:01:58;11.90;99.90
33095;DHT22;19459;53.044;8.910;2023-04-24T01:04:24;11.90;99.90
33095;DHT22;19459;53.044;8.910;2023-04-24T01:06:51;11.80;99.90
33095;DHT22;19459;53.044;8.910;2023-04-24T01:09:18;11.80;99.90
33095;DHT22;19459;53.044;8.910;2023-04-24T01:11:44;11.90;99.90
33095;DHT22;19459;53.044;8.910;2023-04-24T01:14:10;11.80;99.90
33095;DHT22;19459;53.044;8.910;2023-04-24T01:16:36;11.70;99.90
33095;DHT22;19459;53.044;8.910;2023-04-24T01:19:04;11.70;99.90
33095;DHT22;19459;53.044;8.910;2023-04-24T01:21:36;11.70;99.90
33095;DHT22;19459;53.044;8.910;2023-04-24T01:24:04;11.60;99.90
33095;DHT22;19459;53.044;8.910;2023-04-24T01:26:31;11.60;99.90
33095;DHT22;19459;53.044;8.910;2023-04-24T01:28:57;11.60;99.90
33095;DHT22;19459;53.044;8.910;2023-04-24T01:31:23;11.60;99.90
33095;DHT22;19459;53.044;8.910;2023-04-24T01:33:50;11.70;99.90
33095;DHT22;19459;53.044;8.910;2023-04-24T01:36:17;11.70;99.90
33095;DHT22;19459;53.044;8.910;2023-04-24T01:38:44;11.70;99.90
33095;DHT22;19459;53.044;8.910;2023-04-24T01:41:10;11.70;99.90
33095;DHT22;19459;53.044;8.910;2023-04-24T01:43:36;11.70;99.90
33095;DHT22;19459;53.044;8.910;2023-04-24T01:46:01;11.70;99.90
33095;DHT22;19459;53.044;8.910;2023-04-24T01:48:28;11.70;99.90
33095;DHT22;19459;53.044;8.910;2023-04-24T01:50:54;11.70;99.90
33095;DHT22;19459;53.044;8.910;2023-04-24T01:53:20;11.70;99.90
33095;DHT22;19459;53.044;8.910;2023-04-24T01:55:46;11.70;99.90
33095;DHT22;19459;53.044;8.910;2023-04-24T01:58:12;11.70;99.90
33095;DHT22;19459;53.044;8.910;2023-04-24T02:00:37;11.70;99.90
33095;DHT22;19459;53.044;8.910;2023-04-24T02:03:03;11.60;99.90
33095;DHT22;19459;53.044;8.910;2023-04-24T02:05:29;11.50;99.90
33095;DHT22;19459;53.044;8.910;2023-04-24T02:07:55;11.50;99.90
33095;DHT22;19459;53.044;8.910;2023-04-24T02:10:20;11.40;99.90
33095;DHT22;19459;53.044;8.910;2023-04-24T02:12:46;11.40;99.90
33095;DHT22;19459;53.044;8.910;2023-04-24T02:15:12;11.40;99.90
33095;DHT22;19459;53.044;8.910;2023-04-24T02:17:38;11.40;99.90
33095;DHT22;19459;53.044;8.910;2023-04-24T02:20:07;11.50;99.90
33095;DHT22;19459;53.044;8.910;2023-04-24T02:22:33;11.50;99.90
33095;DHT22;19459;53.044;8.910;2023-04-24T02:24:59;11.50;99.90
33095;DHT22;19459;53.044;8.910;2023-04-24T02:27:25;11.70;99.90
33095;DHT22;19459;53.044;8.910;2023-04-24T02:29:51;11.70;99.90
33095;DHT22;19459;53.044;8.910;2023-04-24T02:32:16;11.60;99.90
33095;DHT22;19459;53.044;8.910;2023-04-24T02:34:42;11.60;99.90
33095;DHT22;19459;53.044;8.910;2023-04-24T02:37:08;11.70;99.90
33095;DHT22;19459;53.044;8.910;2023-04-24T02:39:34;11.70;99.90
33095;DHT22;19459;53.044;8.910;2023-04-24T02:42:00;11.60;99.90
33095;DHT22;19459;53.044;8.910;2023-04-24T02:44:27;11.60;99.90
33095;DHT22;19459;53.044;8.910;2023-04-24T02:46:52;11.60;99.90
33095;DHT22;19459;53.044;8.910;2023-04-24T02:49:18;11.60;99.90
33095;DHT22;19459;53.044;8.910;2023-04-24T02:51:44;11.70;99.90
33095;DHT22;19459;53.044;8.910;2023-04-24T02:54:09;11.60;99.90
33095;DHT22;19459;53.044;8.910;2023-04-24T02:56:36;11.60;99.90
33095;DHT22;19459;53.044;8.910;2023-04-24T02:59:02;11.60;99.90
33095;DHT22;19459;53.044;8.910;2023-04-24T03:01:28;11.60;99.90
33095;DHT22;19459;53.044;8.910;2023-04-24T03:03:54;11.60;99.90
33095;DHT22;19459;53.044;8.910;2023-04-24T03:06:20;11.60;99.90
33095;DHT22;19459;53.044;8.910;2023-04-24T03:08:46;11.60;99.90
33095;DHT22;19459;53.044;8.910;2023-04-24T03:11:12;11.60;99.90
33095;DHT22;19459;53.044;8.910;2023-04-24T03:13:37;11.60;99.90
33095;DHT22;19459;53.044;8.910;2023-04-24T03:16:04;11.60;99.90
33095;DHT22;19459;53.044;8.910;2023-04-24T03:18:30;11.60;99.90
33095;DHT22;19459;53.044;8.910;2023-04-24T03:20:56;11.60;99.90
33095;DHT22;19459;53.044;8.910;2023-04-24T03:23:22;11.60;99.90
33095;DHT22;19459;53.044;8.910;2023-04-24T03:25:48;11.50;99.90
33095;DHT22;19459;53.044;8.910;2023-04-24T03:28:14;11.50;99.90
33095;DHT22;19459;53.044;8.910;2023-04-24T03:30:40;11.50;99.90
33095;DHT22;19459;53.044;8.910;2023-04-24T03:33:06;11.50;99.90
33095;DHT22;19459;53.044;8.910;2023-04-24T03:35:32;11.40;99.90
33095;DHT22;19459;53.044;8.910;2023-04-24T03:37:57;11.40;99.90
33095;DHT22;19459;53.044;8.910;2023-04-24T03:40:23;11.50;99.90
33095;DHT22;19459;53.044;8.910;2023-04-24T03:42:49;11.40;99.90
33095;DHT22;19459;53.044;8.910;2023-04-24T03:45:15;11.50;99.90
33095;DHT22;19459;53.044;8.910;2023-04-24T03:47:40;11.40;99.90
33095;DHT22;19459;53.044;8.910;2023-04-24T03:50:06;11.40;99.90
33095;DHT22;19459;53.044;8.910;2023-04-24T03:52:32;11.40;99.90
33095;DHT22;19459;53.044;8.910;2023-04-24T03:54:58;11.40;99.90
33095;DHT22;19459;53.044;8.910;2023-04-24T03:57:24;11.40;99.90
33095;DHT22;19459;53.044;8.910;2023-04-24T03:59:50;11.40;99.90
33095;DHT22;19459;53.044;8.910;2023-04-24T04:02:16;11.40;99.90
33095;DHT22;19459;53.044;8.910;2023-04-24T04:04:42;11.40;99.90
33095;DHT22;19459;53.044;8.910;2023-04-24T04:07:08;11.40;99.90
33095;DHT22;19459;53.044;8.910;2023-04-24T04:09:34;11.40;99.90
33095;DHT22;19459;53.044;8.910;2023-04-24T04:11:59;11.40;99.90
33095;DHT22;19459;53.044;8.910;2023-04-24T04:14:26;11.50;99.90
33095;DHT22;19459;53.044;8.910;2023-04-24T04:16:52;11.40;99.90
33095;DHT22;19459;53.044;8.910;2023-04-24T04:19:18;11.40;99.90
33095;DHT22;19459;53.044;8.910;2023-04-24T04:21:44;11.40;99.90
33095;DHT22;19459;53.044;8.910;2023-04-24T04:24:11;11.40;99.90
33095;DHT22;19459;53.044;8.910;2023-04-24T04:26:37;11.40;99.90
33095;DHT22;19459;53.044;8.910;2023-04-24T04:29:03;11.40;99.90
33095;DHT22;19459;53.044;8.910;2023-04-24T04:31:29;11.40;99.90
33095;DHT22;19459;53.044;8.910;2023-04-24T04:33:56;11.40;99.90
33095;DHT22;19459;53.044;8.910;2023-04-24T04:36:21;11.40;99.90
33095;DHT22;19459;53.044;8.910;2023-04-24T04:38:49;11.40;99.90
33095;DHT22;19459;53.044;8.910;2023-04-24T04:41:15;11.40;99.90
33095;DHT22;19459;53.044;8.910;2023-04-24T04:43:42;11.40;99.90
33095;DHT22;19459;53.044;8.910;2023-04-24T04:46:08;11.40;99.90
33095;DHT22;19459;53.044;8.910;2023-04-24T04:48:36;11.40;99.90
33095;DHT22;19459;53.044;8.910;2023-04-24T04:51:02;11.30;99.90
33095;DHT22;19459;53.044;8.910;2023-04-24T04:53:27;11.40;99.90
33095;DHT22;19459;53.044;8.910;2023-04-24T04:55:53;11.40;99.90
33095;DHT22;19459;53.044;8.910;2023-04-24T04:58:19;11.40;99.90
33095;DHT22;19459;53.044;8.910;2023-04-24T05:00:45;11.40;99.90
33095;DHT22;19459;53.044;8.910;2023-04-24T05:03:11;11.40;99.90
33095;DHT22;19459;53.044;8.910;2023-04-24T05:05:37;11.40;99.90
33095;DHT22;19459;53.044;8.910;2023-04-24T05:08:06;11.40;99.90
33095;DHT22;19459;53.044;8.910;2023-04-24T05:10:33;11.40;99.90
33095;DHT22;19459;53.044;8.910;2023-04-24T05:12:59;11.40;99.90
33095;DHT22;19459;53.044;8.910;2023-04-24T05:15:25;11.40;99.90
33095;DHT22;19459;53.044;8.910;2023-04-24T05:17:51;11.30;99.90
33095;DHT22;19459;53.044;8.910;2023-04-24T05:20:17;11.30;99.90
33095;DHT22;19459;53.044;8.910;2023-04-24T05:22:43;11.30;99.90
33095;DHT22;19459;53.044;8.910;2023-04-24T05:25:09;11.30;99.90
33095;DHT22;19459;53.044;8.910;2023-04-24T05:27:34;11.30;99.90
33095;DHT22;19459;53.044;8.910;2023-04-24T05:30:00;11.30;99.90
33095;DHT22;19459;53.044;8.910;2023-04-24T05:32:26;11.30;99.90
33095;DHT22;19459;53.044;8.910;2023-04-24T05:34:52;11.30;99.90
33095;DHT22;19459;53.044;8.910;2023-04-24T05:37:18;11.30;99.90
33095;DHT22;19459;53.044;8.910;2023-04-24T05:39:43;11.40;99.90
33095;DHT22;19459;53.044;8.910;2023-04-24T05:42:09;11.40;99.90
33095;DHT22;19459;53.044;8.910;2023-04-24T05:44:35;11.40;99.90
33095;DHT22;19459;53.044;8.910;2023-04-24T05:47:02;11.40;99.90
33095;DHT22;19459;53.044;8.910;2023-04-24T05:49:28;11.40;99.90
33095;DHT22;19459;53.044;8.910;2023-04-24T05:51:54;11.50;99.90
33095;DHT22;19459;53.044;8.910;2023-04-24T05:54:19;11.50;99.90
33095;DHT22;19459;53.044;8.910;2023-04-24T05:56:45;11.70;99.90
33095;DHT22;19459;53.044;8.910;2023-04-24T05:59:11;11.80;99.90
33095;DHT22;19459;53.044;8.910;2023-04-24T06:01:37;11.90;99.90
33095;DHT22;19459;53.044;8.910;2023-04-24T06:04:03;12.00;99.90
33095;DHT22;19459;53.044;8.910;2023-04-24T06:06:29;12.00;99.90
33095;DHT22;19459;53.044;8.910;2023-04-24T06:08:55;11.90;99.90
33095;DHT22;19459;53.044;8.910;2023-04-24T06:11:22;11.90;99.90
33095;DHT22;19459;53.044;8.910;2023-04-24T06:13:48;11.90;99.90
33095;DHT22;19459;53.044;8.910;2023-04-24T06:16:14;11.90;99.90
33095;DHT22;19459;53.044;8.910;2023-04-24T06:18:39;11.80;99.90
33095;DHT22;19459;53.044;8.910;2023-04-24T06:21:05;11.80;99.90
33095;DHT22;19459;53.044;8.910;2023-04-24T06:23:31;11.80;99.90
33095;DHT22;19459;53.044;8.910;2023-04-24T06:25:58;11.80;99.90
33095;DHT22;19459;53.044;8.910;2023-04-24T06:28:25;11.80;99.90
33095;DHT22;19459;53.044;8.910;2023-04-24T06:30:51;11.70;99.90
33095;DHT22;19459;53.044;8.910;2023-04-24T06:33:17;11.70;99.90
33095;DHT22;19459;53.044;8.910;2023-04-24T06:35:43;11.70;99.90
33095;DHT22;19459;53.044;8.910;2023-04-24T06:38:08;11.70;99.90
33095;DHT22;19459;53.044;8.910;2023-04-24T06:40:34;11.70;99.90
33095;DHT22;19459;53.044;8.910;2023-04-24T06:43:00;11.80;99.90
33095;DHT22;19459;53.044;8.910;2023-04-24T06:45:28;11.90;99.90
33095;DHT22;19459;53.044;8.910;2023-04-24T06:47:55;11.80;99.90
33095;DHT22;19459;53.044;8.910;2023-04-24T06:50:21;11.70;99.90
33095;DHT22;19459;53.044;8.910;2023-04-24T06:52:47;11.80;99.90
33095;DHT22;19459;53.044;8.910;2023-04-24T06:55:13;11.70;99.90
33095;DHT22;19459;53.044;8.910;2023-04-24T06:57:40;11.70;99.90
33095;DHT22;19459;53.044;8.910;2023-04-24T07:00:07;11.80;99.90
33095;DHT22;19459;53.044;8.910;2023-04-24T07:02:34;11.70;99.90
33095;DHT22;19459;53.044;8.910;2023-04-24T07:05:00;11.80;99.90
33095;DHT22;19459;53.044;8.910;2023-04-24T07:07:27;11.80;99.90
33095;DHT22;19459;53.044;8.910;2023-04-24T07:09:53;11.80;99.90
33095;DHT22;19459;53.044;8.910;2023-04-24T07:12:19;11.80;99.90
33095;DHT22;19459;53.044;8.910;2023-04-24T07:14:47;11.90;99.90
33095;DHT22;19459;53.044;8.910;2023-04-24T07:17:13;11.90;99.90
33095;DHT22;19459;53.044;8.910;2023-04-24T07:19:39;11.90;99.90
33095;DHT22;19459;53.044;8.910;2023-04-24T07:22:05;11.80;99.90
33095;DHT22;19459;53.044;8.910;2023-04-24T07:24:31;11.90;99.90
33095;DHT22;19459;53.044;8.910;2023-04-24T07:26:59;12.00;99.90
33095;DHT22;19459;53.044;8.910;2023-04-24T07:29:28;12.10;99.90
33095;DHT22;19459;53.044;8.910;2023-04-24T07:31:54;12.10;99.90
33095;DHT22;19459;53.044;8.910;2023-04-24T07:34:20;12.10;99.90
33095;DHT22;19459;53.044;8.910;2023-04-24T07:36:46;12.20;99.90
33095;DHT22;19459;53.044;8.910;2023-04-24T07:39:12;12.10;99.90
33095;DHT22;19459;53.044;8.910;2023-04-24T07:41:38;11.90;99.90
33095;DHT22;19459;53.044;8.910;2023-04-24T07:44:07;11.90;99.90
33095;DHT22;19459;53.044;8.910;2023-04-24T07:46:33;11.90;99.90
33095;DHT22;19459;53.044;8.910;2023-04-24T07:48:59;12.00;99.90
33095;DHT22;19459;53.044;8.910;2023-04-24T07:51:26;12.00;99.90
33095;DHT22;19459;53.044;8.910;2023-04-24T07:53:56;12.10;99.90
33095;DHT22;19459;53.044;8.910;2023-04-24T07:56:22;12.00;99.90
33095;DHT22;19459;53.044;8.910;2023-04-24T07:58:48;11.90;99.90
33095;DHT22;19459;53.044;8.910;2023-04-24T08:01:18;11.90;99.90
33095;DHT22;19459;53.044;8.910;2023-04-24T08:03:44;11.80;99.90
33095;DHT22;19459;53.044;8.910;2023-04-24T08:06:11;11.90;99.90
33095;DHT22;19459;53.044;8.910;2023-04-24T08:08:37;11.90;99.90
33095;DHT22;19459;53.044;8.910;2023-04-24T08:11:03;11.90;99.90
33095;DHT22;19459;53.044;8.910;2023-04-24T08:13:29;11.90;99.90
33095;DHT22;19459;53.044;8.910;2023-04-24T08:15:56;12.00;99.90
33095;DHT22;19459;53.044;8.910;2023-04-24T08:18:22;11.90;99.90
33095;DHT22;19459;53.044;8.910;2023-04-24T08:20:48;11.90;99.90
33095;DHT22;19459;53.044;8.910;2023-04-24T08:23:14;12.00;99.90
33095;DHT22;19459;53.044;8.910;2023-04-24T08:25:40;12.10;99.90
33095;DHT22;19459;53.044;8.910;2023-04-24T08:28:07;12.10;99.90
33095;DHT22;19459;53.044;8.910;2023-04-24T08:30:34;12.10;99.90
33095;DHT22;19459;53.044;8.910;2023-04-24T08:33:00;12.00;99.90
33095;DHT22;19459;53.044;8.910;2023-04-24T08:35:25;11.90;99.90
33095;DHT22;19459;53.044;8.910;2023-04-24T08:37:52;12.00;99.90
33095;DHT22;19459;53.044;8.910;2023-04-24T08:40:24;12.10;99.90
33095;DHT22;19459;53.044;8.910;2023-04-24T08:42:55;12.20;99.90
33095;DHT22;19459;53.044;8.910;2023-04-24T08:45:23;12.20;99.90
33095;DHT22;19459;53.044;8.910;2023-04-24T08:47:49;12.20;99.90
33095;DHT22;19459;53.044;8.910;2023-04-24T08:50:15;12.20;99.90
33095;DHT22;19459;53.044;8.910;2023-04-24T08:52:42;12.10;99.90
33095;DHT22;19459;53.044;8.910;2023-04-24T08:55:08;12.20;99.90
33095;DHT22;19459;53.044;8.910;2023-04-24T08:57:35;12.30;99.90
33095;DHT22;19459;53.044;8.910;2023-04-24T09:00:04;12.40;99.90
33095;DHT22;19459;53.044;8.910;2023-04-24T09:02:31;12.60;99.90
33095;DHT22;19459;53.044;8.910;2023-04-24T09:04:57;12.60;99.90
33095;DHT22;19459;53.044;8.910;2023-04-24T09:07:24;12.60;99.90
33095;DHT22;19459;53.044;8.910;2023-04-24T09:09:51;12.60;99.90
33095;DHT22;19459;53.044;8.910;2023-04-24T09:12:18;12.70;99.90
33095;DHT22;19459;53.044;8.910;2023-04-24T09:14:45;12.50;99.90
33095;DHT22;19459;53.044;8.910;2023-04-24T09:17:12;12.30;99.90
33095;DHT22;19459;53.044;8.910;2023-04-24T09:19:37;12.20;99.90
33095;DHT22;19459;53.044;8.910;2023-04-24T09:22:06;12.10;99.90
33095;DHT22;19459;53.044;8.910;2023-04-24T09:24:34;12.00;99.90
33095;DHT22;19459;53.044;8.910;2023-04-24T09:27:01;12.00;99.90
33095;DHT22;19459;53.044;8.910;2023-04-24T09:29:27;12.00;99.90
33095;DHT22;19459;53.044;8.910;2023-04-24T09:31:54;12.00;99.90
33095;DHT22;19459;53.044;8.910;2023-04-24T09:34:24;12.10;99.90
33095;DHT22;19459;53.044;8.910;2023-04-24T09:36:52;12.10;99.90
33095;DHT22;19459;53.044;8.910;2023-04-24T09:39:18;12.20;99.90
33095;DHT22;19459;53.044;8.910;2023-04-24T09:44:19;12.10;99.90
33095;DHT22;19459;53.044;8.910;2023-04-24T09:46:57;12.00;99.90
33095;DHT22;19459;53.044;8.910;2023-04-24T09:49:28;12.00;99.90
33095;DHT22;19459;53.044;8.910;2023-04-24T09:52:06;12.00;99.90
33095;DHT22;19459;53.044;8.910;2023-04-24T09:54:36;12.00;99.90
33095;DHT22;19459;53.044;8.910;2023-04-24T09:57:04;12.10;99.90
33095;DHT22;19459;53.044;8.910;2023-04-24T09:59:30;12.20;99.90
33095;DHT22;19459;53.044;8.910;2023-04-24T10:01:56;12.50;99.90
33095;DHT22;19459;53.044;8.910;2023-04-24T10:04:28;12.50;99.90
33095;DHT22;19459;53.044;8.910;2023-04-24T10:06:56;12.60;99.90
33095;DHT22;19459;53.044;8.910;2023-04-24T10:09:24;12.50;99.90
33095;DHT22;19459;53.044;8.910;2023-04-24T10:11:52;12.40;99.90
33095;DHT22;19459;53.044;8.910;2023-04-24T10:14:23;12.70;99.90
33095;DHT22;19459;53.044;8.910;2023-04-24T10:16:53;12.70;99.90
33095;DHT22;19459;53.044;8.910;2023-04-24T10:19:20;12.60;99.90
33095;DHT22;19459;53.044;8.910;2023-04-24T10:21:46;12.50;99.90
33095;DHT22;19459;53.044;8.910;2023-04-24T10:24:14;12.40;99.90
33095;DHT22;19459;53.044;8.910;2023-04-24T10:26:41;12.30;99.90
33095;DHT22;19459;53.044;8.910;2023-04-24T10:29:08;12.20;99.90
33095;DHT22;19459;53.044;8.910;2023-04-24T10:31:36;12.10;99.90
33095;DHT22;19459;53.044;8.910;2023-04-24T10:34:03;12.00;99.90
33095;DHT22;19459;53.044;8.910;2023-04-24T10:36:30;11.80;99.90
33095;DHT22;19459;53.044;8.910;2023-04-24T10:38:59;11.70;99.90
33095;DHT22;19459;53.044;8.910;2023-04-24T10:41:30;11.60;99.90
33095;DHT22;19459;53.044;8.910;2023-04-24T10:44:09;11.70;99.90
33095;DHT22;19459;53.044;8.910;2023-04-24T10:46:36;11.70;99.90
33095;DHT22;19459;53.044;8.910;2023-04-24T10:49:06;11.70;99.90
33095;DHT22;19459;53.044;8.910;2023-04-24T10:51:48;11.80;99.90
33095;DHT22;19459;53.044;8.910;2023-04-24T10:54:27;11.90;99.90
33095;DHT22;19459;53.044;8.910;2023-04-24T10:59:45;12.00;99.90
33095;DHT22;19459;53.044;8.910;2023-04-24T11:02:14;12.00;99.90
33095;DHT22;19459;53.044;8.910;2023-04-24T11:04:41;12.00;99.90
33095;DHT22;19459;53.044;8.910;2023-04-24T11:07:09;11.90;99.90
33095;DHT22;19459;53.044;8.910;2023-04-24T11:09:35;12.00;99.90
33095;DHT22;19459;53.044;8.910;2023-04-24T11:12:09;12.00;99.90
33095;DHT22;19459;53.044;8.910;2023-04-24T11:20:01;12.10;99.90
33095;DHT22;19459;53.044;8.910;2023-04-24T11:22:34;12.20;99.90
33095;DHT22;19459;53.044;8.910;2023-04-24T11:25:03;12.40;99.90
33095;DHT22;19459;53.044;8.910;2023-04-24T11:27:31;12.30;99.90
33095;DHT22;19459;53.044;8.910;2023-04-24T11:29:59;12.50;99.90
33095;DHT22;19459;53.044;8.910;2023-04-24T11:37:39;12.30;99.90
33095;DHT22;19459;53.044;8.910;2023-04-24T11:40:09;12.30;99.90
33095;DHT22;19459;53.044;8.910;2023-04-24T11:42:41;12.20;99.90
33095;DHT22;19459;53.044;8.910;2023-04-24T11:45:11;12.30;99.90
33095;DHT22;19459;53.044;8.910;2023-04-24T11:47:42;12.10;99.90
33095;DHT22;19459;53.044;8.910;2023-04-24T11:50:11;12.10;99.90
33095;DHT22;19459;53.044;8.910;2023-04-24T11:52:42;12.10;99.90
33095;DHT22;19459;53.044;8.910;2023-04-24T11:57:55;11.80;99.90
33095;DHT22;19459;53.044;8.910;2023-04-24T12:03:06;11.80;99.90
33095;DHT22;19459;53.044;8.910;2023-04-24T12:05:33;11.80;99.90
33095;DHT22;19459;53.044;8.910;2023-04-24T12:08:00;11.80;99.90
33095;DHT22;19459;53.044;8.910;2023-04-24T12:10:30;11.80;99.90
33095;DHT22;19459;53.044;8.910;2023-04-24T12:12:57;11.80;99.90
33095;DHT22;19459;53.044;8.910;2023-04-24T12:15:24;11.50;99.90
33095;DHT22;19459;53.044;8.910;2023-04-24T12:17:54;11.60;99.90
33095;DHT22;19459;53.044;8.910;2023-04-24T12:20:27;11.60;99.90
33095;DHT22;19459;53.044;8.910;2023-04-24T12:22:58;11.60;99.90
33095;DHT22;19459;53.044;8.910;2023-04-24T12:25:27;11.70;99.90
33095;DHT22;19459;53.044;8.910;2023-04-24T12:27:55;11.70;99.90
33095;DHT22;19459;53.044;8.910;2023-04-24T12:30:46;11.70;99.90
33095;DHT22;19459;53.044;8.910;2023-04-24T12:33:17;11.60;99.90
33095;DHT22;19459;53.044;8.910;2023-04-24T12:35:45;11.50;99.90
33095;DHT22;19459;53.044;8.910;2023-04-24T12:38:13;11.40;99.90
33095;DHT22;19459;53.044;8.910;2023-04-24T12:40:43;11.10;99.90
33095;DHT22;19459;53.044;8.910;2023-04-24T12:43:17;11.10;99.90
33095;DHT22;19459;53.044;8.910;2023-04-24T12:45:44;11.00;99.90
33095;DHT22;19459;53.044;8.910;2023-04-24T12:48:11;10.80;99.90
33095;DHT22;19459;53.044;8.910;2023-04-24T12:50:38;10.90;99.90
33095;DHT22;19459;53.044;8.910;2023-04-24T12:53:04;10.90;99.90
33095;DHT22;19459;53.044;8.910;2023-04-24T12:55:29;10.90;99.90
33095;DHT22;19459;53.044;8.910;2023-04-24T12:57:55;11.00;99.90
33095;DHT22;19459;53.044;8.910;2023-04-24T13:00:21;10.90;99.90
33095;DHT22;19459;53.044;8.910;2023-04-24T13:02:47;10.90;99.90
33095;DHT22;19459;53.044;8.910;2023-04-24T13:05:13;10.80;99.90
33095;DHT22;19459;53.044;8.910;2023-04-24T13:07:39;10.80;99.90
33095;DHT22;19459;53.044;8.910;2023-04-24T13:10:05;10.80;99.90
33095;DHT22;19459;53.044;8.910;2023-04-24T13:12:32;10.70;99.90
33095;DHT22;19459;53.044;8.910;2023-04-24T13:14:58;10.50;99.90
33095;DHT22;19459;53.044;8.910;2023-04-24T13:17:24;10.20;99.90
33095;DHT22;19459;53.044;8.910;2023-04-24T13:19:51;10.10;99.90
33095;DHT22;19459;53.044;8.910;2023-04-24T13:22:20;9.80;99.90
33095;DHT22;19459;53.044;8.910;2023-04-24T13:24:46;9.80;99.90
33095;DHT22;19459;53.044;8.910;2023-04-24T13:27:16;9.70;99.90
33095;DHT22;19459;53.044;8.910;2023-04-24T13:29:42;9.60;99.90
33095;DHT22;19459;53.044;8.910;2023-04-24T13:32:08;9.70;99.90
33095;DHT22;19459;53.044;8.910;2023-04-24T13:34:35;9.70;99.90
33095;DHT22;19459;53.044;8.910;2023-04-24T13:37:01;9.70;99.90
33095;DHT22;19459;53.044;8.910;2023-04-24T13:39:29;9.80;99.90
33095;DHT22;19459;53.044;8.910;2023-04-24T13:41:55;9.80;99.90
33095;DHT22;19459;53.044;8.910;2023-04-24T13:44:22;9.90;99.90
33095;DHT22;19459;53.044;8.910;2023-04-24T13:46:50;9.70;99.90
33095;DHT22;19459;53.044;8.910;2023-04-24T13:49:19;9.70;99.90
33095;DHT22;19459;53.044;8.910;2023-04-24T13:51:46;9.60;99.90
33095;DHT22;19459;53.044;8.910;2023-04-24T13:54:13;9.60;99.90
33095;DHT22;19459;53.044;8.910;2023-04-24T13:56:39;9.50;99.90
33095;DHT22;19459;53.044;8.910;2023-04-24T13:59:06;9.50;99.90
33095;DHT22;19459;53.044;8.910;2023-04-24T14:01:32;9.50;99.90
33095;DHT22;19459;53.044;8.910;2023-04-24T14:03:58;9.50;99.90
33095;DHT22;19459;53.044;8.910;2023-04-24T14:06:24;9.40;99.90
33095;DHT22;19459;53.044;8.910;2023-04-24T14:08:50;9.40;99.90
33095;DHT22;19459;53.044;8.910;2023-04-24T14:11:17;9.40;99.90
33095;DHT22;19459;53.044;8.910;2023-04-24T14:13:43;9.40;99.90
33095;DHT22;19459;53.044;8.910;2023-04-24T14:16:10;9.30;99.90
33095;DHT22;19459;53.044;8.910;2023-04-24T14:18:36;9.20;99.90
33095;DHT22;19459;53.044;8.910;2023-04-24T14:21:03;9.20;99.90
33095;DHT22;19459;53.044;8.910;2023-04-24T14:23:30;9.20;99.90
33095;DHT22;19459;53.044;8.910;2023-04-24T14:25:56;9.10;99.90
33095;DHT22;19459;53.044;8.910;2023-04-24T14:28:23;9.00;99.90
33095;DHT22;19459;53.044;8.910;2023-04-24T14:30:49;9.00;99.90
33095;DHT22;19459;53.044;8.910;2023-04-24T14:33:15;9.00;99.90
33095;DHT22;19459;53.044;8.910;2023-04-24T14:35:44;9.00;99.90
33095;DHT22;19459;53.044;8.910;2023-04-24T14:38:10;9.10;99.90
33095;DHT22;19459;53.044;8.910;2023-04-24T14:40:37;9.10;99.90
33095;DHT22;19459;53.044;8.910;2023-04-24T14:43:03;9.10;99.90
33095;DHT22;19459;53.044;8.910;2023-04-24T14:45:29;9.10;99.90
33095;DHT22;19459;53.044;8.910;2023-04-24T14:47:55;9.10;99.90
33095;DHT22;19459;53.044;8.910;2023-04-24T14:50:21;9.00;99.90
33095;DHT22;19459;53.044;8.910;2023-04-24T14:52:47;9.00;99.90
33095;DHT22;19459;53.044;8.910;2023-04-24T14:55:13;9.10;99.90
33095;DHT22;19459;53.044;8.910;2023-04-24T14:57:39;9.00;99.90
33095;DHT22;19459;53.044;8.910;2023-04-24T15:00:06;9.00;99.90
33095;DHT22;19459;53.044;8.910;2023-04-24T15:02:34;9.10;99.90
33095;DHT22;19459;53.044;8.910;2023-04-24T15:05:03;9.10;99.90
33095;DHT22;19459;53.044;8.910;2023-04-24T15:07:29;9.10;99.90
33095;DHT22;19459;53.044;8.910;2023-04-24T15:09:56;9.10;99.90
33095;DHT22;19459;53.044;8.910;2023-04-24T15:12:22;9.20;99.90
33095;DHT22;19459;53.044;8.910;2023-04-24T15:14:47;9.20;99.90
33095;DHT22;19459;53.044;8.910;2023-04-24T15:17:13;9.20;99.90
33095;DHT22;19459;53.044;8.910;2023-04-24T15:19:39;9.20;99.90
33095;DHT22;19459;53.044;8.910;2023-04-24T15:22:05;9.20;99.90
33095;DHT22;19459;53.044;8.910;2023-04-24T15:24:30;9.30;99.90
33095;DHT22;19459;53.044;8.910;2023-04-24T15:26:56;9.20;99.90
33095;DHT22;19459;53.044;8.910;2023-04-24T15:29:22;9.20;99.90
33095;DHT22;19459;53.044;8.910;2023-04-24T15:31:48;9.00;99.90
33095;DHT22;19459;53.044;8.910;2023-04-24T15:34:14;9.00;99.90
33095;DHT22;19459;53.044;8.910;2023-04-24T15:36:40;8.90;99.90
33095;DHT22;19459;53.044;8.910;2023-04-24T15:39:05;8.90;99.90
33095;DHT22;19459;53.044;8.910;2023-04-24T15:41:31;9.00;99.90
33095;DHT22;19459;53.044;8.910;2023-04-24T15:43:57;9.00;99.90
33095;DHT22;19459;53.044;8.910;2023-04-24T15:46:23;9.10;99.90
33095;DHT22;19459;53.044;8.910;2023-04-24T15:48:49;9.20;99.90
33095;DHT22;19459;53.044;8.910;2023-04-24T15:51:15;9.20;99.90